Terminal Aerodrome Forecast
Issued by NWS Charleston, WV

Current Version | Previous Version | Graphics & Text | Print | Product List | Glossary On
Versions: 1 2 3 4 5 6 7 8 9 10 11 12 13 14 15 16 17 18 19 20 21 22 23 24
000
FTUS41 KRLX 230500 RRA
TAFEKN
TAF
KEKN 230548Z 2306/2406 VRB03KT 1SM BR SCT040
      TEMPO 2306/2310 3SM BR BKN040
     FM231200 23004KT 5SM HZ BKN030
     FM231400 24007KT 6SM HZ BKN030
     FM231700 24009KT P6SM VCTS BKN035CB
     FM232000 28011G17KT P6SM VCTS BKN035CB
     FM232200 28010G15KT 4SM TSRA BR BKN030CB
     FM232300 27008KT 4SM TSRA BR BKN025CB
     FM240100 30003KT 4SM SHRA BR BKN020
     FM240500 VRB03KT 4SM -SHRA BR OVC016=

USA.gov is the U.S. government's official web portal to all federal, state and local government web resources and services.